• Join FlightAware (Why Join?)
  • Login
  • US Flag 
12:50AM EDT


 

Airport Tracker/Info


-or-


 

Live Flight TrackerFlight Track Log ✈ CTL21 ✈ 20-Jun-2013 ✈ KAZO - KBKL

Flight Track Log - Related Links

Times and Time Zones

All times are in EDT time to prevent confusion due to time zone crossing. See the CTL21 flight status page for this flight to view local times or setup timezone preferences in your user account.

Time Position Orientation Groundspeed Altitude Reporting Facility
EDT Latitude Longitude Course Direction KTS MPH feet Rate Location/Type
05:22PM 42.1511 -85.4733 115° Southeast 125 144 3,800  Level Chicago Center
05:23PM 42.1331 -85.4303 119° Southeast 130 150 4,600 780 Climbing Chicago Center
05:24PM 42.1153 -85.3875 119° Southeast 130 150 5,500 720 Climbing Chicago Center
05:25PM 42.0931 -85.2226 120° Southeast  Level FlightAware Approximate
05:25PM 42.0947 -85.3456 123° Southeast 132 152 6,100  Level Chicago Center
05:26PM 42.0710 -85.1671 117° Southeast  Level FlightAware Approximate
05:26PM 42.0758 -85.2978 118° Southeast 140 161 6,800  Level Chicago Center
05:27PM 42.0578 -85.2489 116° Southeast 143 165 7,500 660 Climbing Chicago Center
05:28PM 42.0364 -85.1889 116° Southeast 147 169 8,200 600 Climbing Chicago Center
05:29PM 42.0164 -85.1353 117° Southeast 155 178 8,800 420 Climbing Chicago Center
05:30PM 41.9953 -85.0819 118° Southeast 160 184 9,100 120 Climbing Chicago Center
05:31PM 41.9725 -85.0197 116° Southeast 176 203 9,100  Level Chicago Center
05:32PM 41.9478 -84.9586 119° Southeast 183 211 9,100  Level Chicago Center
05:33PM 41.9247 -84.8950 116° Southeast 187 215 9,100  Level Chicago Center
05:34PM 41.9008 -84.8339 118° Southeast 185 213 9,100  Level Chicago Center
05:35PM 41.8714 -84.7575 117° Southeast 190 219 9,100  Level Chicago Center
05:36PM 41.8478 -84.6958 117° Southeast 187 215 9,100  Level Chicago Center
05:37PM 41.8247 -84.6325 116° Southeast 188 216 9,100  Level Chicago Center
05:38PM 41.8006 -84.5708 118° Southeast 187 215 9,100  Level Chicago Center
05:39PM 41.7781 -84.5075 115° Southeast 187 215 9,100  Level Chicago Center
05:40PM 41.7569 -84.4450 114° Southeast 185 213 9,100  Level Chicago Center
05:41PM 41.7278 -84.3697 117° Southeast 188 216 9,100  Level Chicago Center
05:42PM 41.7058 -84.3100 116° Southeast 184 212 9,100  Level Chicago Center
05:43PM 41.6819 -84.2494 118° Southeast 184 212 9,100 -60 Level Chicago Center
05:45PM 41.6567 -84.1878 119° Southeast 185 213 9,000 -60 Descending Chicago Center
05:57PM 41.5144 -83.3203 102° East 187 215 9,000  Level Cleveland Center
05:58PM 41.5033 -83.2589 104° East 182 209 9,000  Level Cleveland Center
05:59PM 41.4967 -83.1864 97° East 184 212 9,000  Level Cleveland Center
06:00PM 41.4878 -83.1194 100° East 192 221 9,000 -60 Level Cleveland Center
06:01PM 41.4808 -83.0528 98° East 202 232 8,900 -60 Descending Cleveland Center
06:02PM 41.4719 -82.9858 100° East 191 220 8,900  Level Cleveland Center
06:03PM 41.4650 -82.9247 99° East 186 214 8,900  Level Cleveland Center
06:04PM 41.4558 -82.8550 100° East 181 208 8,900  Level Cleveland Center
06:05PM 41.4467 -82.7908 101° East 185 213 9,000 60 Climbing Cleveland Center
06:06PM 41.4414 -82.7436 98° East 186 214 9,000  Level Cleveland Center
06:07PM 41.4342 -82.6769 98° East 186 214 9,100 -60 Climbing Cleveland Center
06:08PM 41.4356 -82.6078 88° East 186 214 8,900 -360 Descending Cleveland Center
06:09PM 41.4431 -82.5361 82° East 201 231 8,400 -540 Descending Cleveland Center
06:10PM 41.4506 -82.4586 83° East 207 238 7,900 -600 Descending Cleveland Center
06:11PM 41.4664 -82.3842 74° East 200 230 7,300 -780 Descending Cleveland Center
06:12PM 41.4903 -82.3156 65° Northeast 201 231 6,400 -1,440 Descending Cleveland Center
06:13PM 41.5164 -82.2386 66° East 232 267 4,400 -1,500 Descending Cleveland Center
06:14PM 41.5300 -82.1614 77° East 210 242 3,400 -1,020 Descending Cleveland Center
06:15PM 41.5497 -82.0897 70° East 201 231 2,400 -840 Descending Cleveland Center
06:16PM 41.5611 -82.0233 77° East 172 198 1,800 -300 Descending Cleveland Center
06:17PM 41.5514 -81.9622 102° East 154 177 1,800  Level Cleveland Center
06:18PM 41.5436 -81.9092 101° East 155 178 1,800  Level Cleveland Center
06:19PM 41.5339 -81.8536 103° East 151 174 1,800 -60 Level Cleveland Center
06:20PM 41.5261 -81.7981 101° East 154 177 1,700 -180 Descending Cleveland Center
06:21PM 41.5183 -81.7478 102° East 137 158 1,500 -240 Descending Cleveland Center